Time;durP1;ratioP1;P1;durP2;ratioP2;P2;SDS_P1;SDS_P2;PMS_P1;PMS_P2;Temp;Humidity;BMP_temperature;BMP_pressure;BME280_temperature;BME280_humidity;BME280_pressure;Samples;Min_cycle;Max_cycle;Signal;HPM_P1;HPM_P2
2022/08/02 00:00:05;;;;;;;;;;;;;;;;;;351317;28;968;-64
2022/08/02 00:00:15;;;;;;;;;;;;;;;;;;351433;28;877;-64
2022/08/02 00:00:25;;;;;;;;;;;;;;;;;;351322;28;1069;-64
2022/08/02 00:00:36;;;;;;;;;;;;;;;;;;351343;27;924;-64
2022/08/02 00:00:46;;;;;;;;;;;;;;;;;;351368;27;912;-64
2022/08/02 00:00:56;;;;;;;;;;;;;;;;;;351236;28;1074;-64
2022/08/02 00:01:07;;;;;;;;;;;;;;;;;;351343;28;948;-64
2022/08/02 00:01:17;;;;;;;;;;;;;;;;;;351339;28;944;-64
2022/08/02 00:01:27;;;;;;;;;;;;;;;;;;351350;28;1161;-64
2022/08/02 00:01:38;;;;;;;;;;;;;;;;;;351302;28;834;-64
2022/08/02 00:01:48;;;;;;;;;;;;;;;;;;351370;28;908;-64
2022/08/02 00:01:58;;;;;;;;;;;;;;;;;;351344;28;909;-64
2022/08/02 00:02:09;;;;;;;;;;;;;;;;;;351327;28;897;-64
2022/08/02 00:02:19;;;;;;;;;;;;;;;;;;351415;28;908;-64
2022/08/02 00:02:29;;;;;;;;;;;;;;;;;;351371;28;786;-64
2022/08/02 00:02:43;;;;;;;;;;;;;;;;;;351261;28;1056;-64
2022/08/02 00:02:54;;;;;;;;;;;;;;;;;;351342;28;929;-64
2022/08/02 00:03:04;;;;;;;;;;;;;;;;;;351294;28;912;-64
2022/08/02 00:03:14;;;;;;;;;;;;;;;;;;351322;28;948;-64
2022/08/02 00:03:24;;;;;;;;;;;;;;;;;;350740;28;924;-64
2022/08/02 00:03:34;;;;;;;;;;;;;;;;;;349967;28;804;-64
2022/08/02 00:03:45;;;;;;;;;;;;;;;;;;349939;28;909;-64
2022/08/02 00:03:55;;;;;;;;;;;;;;;;;;349880;28;905;-64
2022/08/02 00:04:05;;;;;;;;;;;;;;;;;;349972;28;786;-64
2022/08/02 00:04:15;;;;;;;;;;;;;;;;;;349929;28;1010;-64
2022/08/02 00:04:25;;;;;;;;;;;;;;;;;;349903;28;1209;-64
2022/08/02 00:04:36;;;;;;;;;;;;;;;;;;349916;28;905;-64
2022/08/02 00:04:46;;;;;;;;;;;;;;;;;;349899;28;913;-64
2022/08/02 00:04:56;;;;;;;;;;;;;;;;;;349931;28;987;-64
2022/08/02 00:05:07;;;;;;;;;;;;;;;;;;349567;28;1413;-64
2022/08/02 00:05:17;;;;;;;;;;;;;;;;;;351260;28;980;-64
2022/08/02 00:05:27;;;;;;;;;;;;;;;;;;351367;28;913;-64
2022/08/02 00:05:37;;;;;;;;;;;;;;;;;;351353;28;917;-64
2022/08/02 00:05:48;;;;;;;;;;;;;;;;;;351323;28;905;-64
2022/08/02 00:05:58;;;;;;;;;;;;;;;;;;351336;28;920;-64
2022/08/02 00:06:08;;;;;;;;;;;;;;;;;;351287;28;1287;-64
2022/08/02 00:06:18;;;;;;;;;;;;;;;;;;351314;28;818;-64
2022/08/02 00:06:29;;;;;;;;;;;;;;;;;;351336;28;936;-64
2022/08/02 00:06:39;;;;;;;;;;;;;;;;;;351334;28;916;-64
2022/08/02 00:06:49;;;;;;;;;;;;;;;;;;351336;28;812;-64
2022/08/02 00:06:59;;;;;;;;;;;;;;;;;;351319;28;988;-64
2022/08/02 00:07:09;;;;;;;;;;;;;;;;;;351306;28;945;-64
2022/08/02 00:07:20;;;;;;;;;;;;;;;;;;351356;28;928;-64
2022/08/02 00:07:30;;;;;;;;;;;;;;;;;;349570;28;1456;-64
2022/08/02 00:07:40;;;;;;;;;;;;;;;;;;350759;28;1483;-64
2022/08/02 00:07:50;;;;;;;;;;;;;;;;;;351352;28;995;-64
2022/08/02 00:08:01;;;;;;;;;;;;;;;;;;351348;28;778;-64
2022/08/02 00:08:11;;;;;;;;;;;;;;;;;;350157;28;1709;-64
2022/08/02 00:08:21;;;;;;;;;;;;;;;;;;349877;28;921;-64
2022/08/02 00:08:32;;;;;;;;;;;;;;;;;;349946;28;784;-64
2022/08/02 00:08:42;;;;;;;;;;;;;;;;;;349925;28;928;-64
2022/08/02 00:08:53;;;;;;;;;;;;;;;;;;349958;28;833;-64
2022/08/02 00:09:04;;;;;;;;;;;;;;;;;;349895;28;969;-64
2022/08/02 00:09:14;;;;;;;;;;;;;;;;;;349856;28;1124;-64
2022/08/02 00:09:24;;;;;;;;;;;;;;;;;;350532;28;1487;-64
2022/08/02 00:09:34;;;;;;;;;;;;;;;;;;351330;28;909;-64
2022/08/02 00:09:45;;;;;;;;;;;;;;;;;;350917;28;1498;-64
2022/08/02 00:09:55;;;;;;;;;;;;;;;;;;351285;28;959;-64
2022/08/02 00:10:06;;;;;;;;;;;;;;;;;;351366;28;1053;-64
2022/08/02 00:10:16;;;;;;;;;;;;;;;;;;351353;28;790;-64
2022/08/02 00:10:26;;;;;;;;;;;;;;;;;;351273;28;1015;-64
2022/08/02 00:10:36;;;;;;;;;;;;;;;;;;351332;28;941;-64
2022/08/02 00:10:47;;;;;;;;;;;;;;;;;;351330;28;912;-64
2022/08/02 00:10:57;;;;;;;;;;;;;;;;;;351351;28;935;-64
2022/08/02 00:11:07;;;;;;;;;;;;;;;;;;351310;28;844;-64
2022/08/02 00:11:17;;;;;;;;;;;;;;;;;;351292;28;912;-64
2022/08/02 00:11:27;;;;;;;;;;;;;;;;;;351354;28;837;-64
2022/08/02 00:11:38;;;;;;;;;;;;;;;;;;351189;28;1428;-64
2022/08/02 00:11:48;;;;;;;;;;;;;;;;;;349742;28;1706;-64
2022/08/02 00:11:58;;;;;;;;;;;;;;;;;;350852;28;1970;-64
2022/08/02 00:12:09;;;;;;;;;;;;;;;;;;351278;27;971;-64
2022/08/02 00:12:19;;;;;;;;;;;;;;;;;;350028;28;786;-64
2022/08/02 00:12:29;;;;;;;;;;;;;;;;;;349942;28;933;-64
2022/08/02 00:12:39;;;;;;;;;;;;;;;;;;349889;28;1095;-64
2022/08/02 00:12:50;;;;;;;;;;;;;;;;;;350406;28;984;-64
2022/08/02 00:13:00;;;;;;;;;;;;;;;;;;351315;28;924;-64
2022/08/02 00:13:10;;;;;;;;;;;;;;;;;;351302;28;956;-64
2022/08/02 00:13:21;;;;;;;;;;;;;;;;;;351268;28;991;-64
2022/08/02 00:13:31;;;;;;;;;;;;;;;;;;351361;28;798;-64
2022/08/02 00:13:41;;;;;;;;;;;;;;;;;;351276;28;924;-64
2022/08/02 00:13:51;;;;;;;;;;;;;;;;;;351315;27;917;-64
2022/08/02 00:14:02;;;;;;;;;;;;;;;;;;351304;28;983;-64
2022/08/02 00:14:12;;;;;;;;;;;;;;;;;;351293;28;913;-64
2022/08/02 00:14:23;;;;;;;;;;;;;;;;;;351347;28;924;-64
2022/08/02 00:14:33;;;;;;;;;;;;;;;;;;351356;28;1004;-64
2022/08/02 00:14:43;;;;;;;;;;;;;;;;;;351278;28;824;-64
2022/08/02 00:14:53;;;;;;;;;;;;;;;;;;351354;28;979;-64
2022/08/02 00:15:04;;;;;;;;;;;;;;;;;;351290;27;956;-64
2022/08/02 00:15:15;;;;;;;;;;;;;;;;;;351307;28;816;-64
2022/08/02 00:15:25;;;;;;;;;;;;;;;;;;351317;28;980;-64
2022/08/02 00:15:35;;;;;;;;;;;;;;;;;;351283;28;937;-64
2022/08/02 00:15:45;;;;;;;;;;;;;;;;;;351306;28;913;-64
2022/08/02 00:15:56;;;;;;;;;;;;;;;;;;351264;28;972;-64
2022/08/02 00:16:06;;;;;;;;;;;;;;;;;;351318;28;936;-64
2022/08/02 00:16:16;;;;;;;;;;;;;;;;;;351287;28;869;-64
2022/08/02 00:16:26;;;;;;;;;;;;;;;;;;350753;28;1465;-64
2022/08/02 00:16:36;;;;;;;;;;;;;;;;;;349775;28;1602;-64
2022/08/02 00:16:47;;;;;;;;;;;;;;;;;;351039;28;1864;-64
2022/08/02 00:16:57;;;;;;;;;;;;;;;;;;351213;28;975;-64
2022/08/02 00:17:07;;;;;;;;;;;;;;;;;;349976;28;901;-64
2022/08/02 00:17:17;;;;;;;;;;;;;;;;;;349902;28;894;-64
2022/08/02 00:17:28;;;;;;;;;;;;;;;;;;349965;28;905;-64
2022/08/02 00:17:38;;;;;;;;;;;;;;;;;;349905;28;889;-64
2022/08/02 00:17:48;;;;;;;;;;;;;;;;;;349919;28;874;-64
2022/08/02 00:17:58;;;;;;;;;;;;;;;;;;349917;28;912;-64
2022/08/02 00:18:09;;;;;;;;;;;;;;;;;;349816;28;1898;-64
2022/08/02 00:18:19;;;;;;;;;;;;;;;;;;349898;28;967;-64
2022/08/02 00:18:29;;;;;;;;;;;;;;;;;;349940;28;933;-64
2022/08/02 00:18:39;;;;;;;;;;;;;;;;;;349907;28;1055;-64
2022/08/02 00:18:50;;;;;;;;;;;;;;;;;;349894;28;932;-64
2022/08/02 00:19:00;;;;;;;;;;;;;;;;;;349941;28;817;-64
2022/08/02 00:19:10;;;;;;;;;;;;;;;;;;349958;28;870;-64
2022/08/02 00:19:20;;;;;;;;;;;;;;;;;;349903;28;816;-64
2022/08/02 00:19:31;;;;;;;;;;;;;;;;;;349944;28;995;-64
2022/08/02 00:19:41;;;;;;;;;;;;;;;;;;349858;28;976;-64
2022/08/02 00:19:51;;;;;;;;;;;;;;;;;;349912;28;1004;-64
2022/08/02 00:20:02;;;;;;;;;;;;;;;;;;349935;28;862;-64
2022/08/02 00:20:12;;;;;;;;;;;;;;;;;;349944;28;936;-64
2022/08/02 00:20:23;;;;;;;;;;;;;;;;;;349944;28;853;-64
2022/08/02 00:20:33;;;;;;;;;;;;;;;;;;349944;28;778;-64
2022/08/02 00:20:43;;;;;;;;;;;;;;;;;;349920;28;905;-64
2022/08/02 00:20:53;;;;;;;;;;;;;;;;;;349942;28;975;-64
2022/08/02 00:21:04;;;;;;;;;;;;;;;;;;349925;28;908;-64
2022/08/02 00:21:14;;;;;;;;;;;;;;;;;;349892;28;914;-64
2022/08/02 00:21:25;;;;;;;;;;;;;;;;;;349923;28;1004;-64
2022/08/02 00:21:35;;;;;;;;;;;;;;;;;;349766;28;1371;-64
2022/08/02 00:21:45;;;;;;;;;;;;;;;;;;349909;28;984;-64
2022/08/02 00:21:56;;;;;;;;;;;;;;;;;;349966;28;975;-64
2022/08/02 00:22:06;;;;;;;;;;;;;;;;;;349896;28;889;-64
2022/08/02 00:22:16;;;;;;;;;;;;;;;;;;349929;28;1185;-64
2022/08/02 00:22:26;;;;;;;;;;;;;;;;;;349909;28;971;-64
2022/08/02 00:22:37;;;;;;;;;;;;;;;;;;349889;28;1023;-64
2022/08/02 00:22:47;;;;;;;;;;;;;;;;;;349949;28;920;-64
2022/08/02 00:22:57;;;;;;;;;;;;;;;;;;349847;28;1011;-65
2022/08/02 00:23:07;;;;;;;;;;;;;;;;;;349884;28;971;-64
2022/08/02 00:23:18;;;;;;;;;;;;;;;;;;349959;28;846;-64
2022/08/02 00:23:28;;;;;;;;;;;;;;;;;;349946;28;924;-64
2022/08/02 00:23:38;;;;;;;;;;;;;;;;;;349950;28;874;-64
2022/08/02 00:23:48;;;;;;;;;;;;;;;;;;349856;28;833;-65
2022/08/02 00:23:58;;;;;;;;;;;;;;;;;;349748;28;1393;-64
2022/08/02 00:24:09;;;;;;;;;;;;;;;;;;349788;28;1639;-64
2022/08/02 00:24:19;;;;;;;;;;;;;;;;;;351007;28;1896;-64
2022/08/02 00:24:29;;;;;;;;;;;;;;;;;;351304;28;1016;-64
2022/08/02 00:24:39;;;;;;;;;;;;;;;;;;349872;28;917;-64
2022/08/02 00:24:49;;;;;;;;;;;;;;;;;;349933;28;968;-64
2022/08/02 00:25:00;;;;;;;;;;;;;;;;;;350032;28;776;-64
2022/08/02 00:25:10;;;;;;;;;;;;;;;;;;349906;28;830;-64
2022/08/02 00:25:20;;;;;;;;;;;;;;;;;;349948;28;960;-64
2022/08/02 00:25:30;;;;;;;;;;;;;;;;;;349887;28;909;-64
2022/08/02 00:25:41;;;;;;;;;;;;;;;;;;350831;28;1330;-64
2022/08/02 00:25:51;;;;;;;;;;;;;;;;;;351286;28;897;-64
2022/08/02 00:26:01;;;;;;;;;;;;;;;;;;351319;28;825;-64
2022/08/02 00:26:11;;;;;;;;;;;;;;;;;;351328;28;948;-64
2022/08/02 00:26:21;;;;;;;;;;;;;;;;;;351302;28;916;-64
2022/08/02 00:26:32;;;;;;;;;;;;;;;;;;351381;28;833;-64
2022/08/02 00:26:42;;;;;;;;;;;;;;;;;;351323;28;920;-64
2022/08/02 00:26:52;;;;;;;;;;;;;;;;;;351273;28;995;-64
2022/08/02 00:27:02;;;;;;;;;;;;;;;;;;351308;28;909;-64
2022/08/02 00:27:13;;;;;;;;;;;;;;;;;;351374;28;905;-64
2022/08/02 00:27:23;;;;;;;;;;;;;;;;;;351314;28;833;-64
2022/08/02 00:27:33;;;;;;;;;;;;;;;;;;351350;28;891;-64
2022/08/02 00:27:43;;;;;;;;;;;;;;;;;;351267;28;979;-64
2022/08/02 00:27:53;;;;;;;;;;;;;;;;;;351309;28;937;-64
2022/08/02 00:28:04;;;;;;;;;;;;;;;;;;351325;28;991;-64
2022/08/02 00:28:14;;;;;;;;;;;;;;;;;;351319;28;944;-65
2022/08/02 00:28:24;;;;;;;;;;;;;;;;;;351268;28;925;-64
2022/08/02 00:28:35;;;;;;;;;;;;;;;;;;351334;28;829;-64
2022/08/02 00:28:45;;;;;;;;;;;;;;;;;;351279;28;1000;-64
2022/08/02 00:28:55;;;;;;;;;;;;;;;;;;351314;28;970;-64
2022/08/02 00:29:05;;;;;;;;;;;;;;;;;;351276;28;1120;-64
2022/08/02 00:29:15;;;;;;;;;;;;;;;;;;351328;28;956;-64
2022/08/02 00:29:26;;;;;;;;;;;;;;;;;;351354;28;830;-64
2022/08/02 00:29:36;;;;;;;;;;;;;;;;;;351354;28;964;-64
2022/08/02 00:29:46;;;;;;;;;;;;;;;;;;350297;28;1007;-64
2022/08/02 00:29:56;;;;;;;;;;;;;;;;;;351337;28;837;-64
2022/08/02 00:30:07;;;;;;;;;;;;;;;;;;351249;28;920;-64
2022/08/02 00:30:17;;;;;;;;;;;;;;;;;;351324;28;999;-64
2022/08/02 00:30:27;;;;;;;;;;;;;;;;;;351259;27;797;-64
2022/08/02 00:30:38;;;;;;;;;;;;;;;;;;351273;28;1075;-64
2022/08/02 00:30:48;;;;;;;;;;;;;;;;;;351368;28;901;-64
2022/08/02 00:30:58;;;;;;;;;;;;;;;;;;351319;28;964;-64
2022/08/02 00:31:08;;;;;;;;;;;;;;;;;;351297;28;995;-64
2022/08/02 00:31:19;;;;;;;;;;;;;;;;;;351281;28;904;-65
2022/08/02 00:31:29;;;;;;;;;;;;;;;;;;351356;27;948;-64
2022/08/02 00:31:39;;;;;;;;;;;;;;;;;;351289;28;1016;-64
2022/08/02 00:31:49;;;;;;;;;;;;;;;;;;351292;28;1219;-64
2022/08/02 00:31:59;;;;;;;;;;;;;;;;;;351309;28;1128;-64
2022/08/02 00:32:10;;;;;;;;;;;;;;;;;;351258;28;944;-64
2022/08/02 00:32:21;;;;;;;;;;;;;;;;;;351278;28;1012;-64
2022/08/02 00:32:31;;;;;;;;;;;;;;;;;;351317;28;877;-64
2022/08/02 00:32:41;;;;;;;;;;;;;;;;;;351331;28;971;-64
2022/08/02 00:32:52;;;;;;;;;;;;;;;;;;351304;28;913;-64
2022/08/02 00:33:03;;;;;;;;;;;;;;;;;;351376;28;837;-65
2022/08/02 00:33:14;;;;;;;;;;;;;;;;;;351260;28;1004;-64
2022/08/02 00:33:24;;;;;;;;;;;;;;;;;;351301;28;873;-64
2022/08/02 00:33:34;;;;;;;;;;;;;;;;;;351342;28;869;-64
2022/08/02 00:33:45;;;;;;;;;;;;;;;;;;351322;28;968;-64
2022/08/02 00:33:55;;;;;;;;;;;;;;;;;;351253;28;1015;-64
2022/08/02 00:34:05;;;;;;;;;;;;;;;;;;351324;28;960;-64
2022/08/02 00:34:15;;;;;;;;;;;;;;;;;;351272;28;837;-64
2022/08/02 00:34:26;;;;;;;;;;;;;;;;;;351317;28;915;-64
2022/08/02 00:34:36;;;;;;;;;;;;;;;;;;351295;28;916;-64
2022/08/02 00:34:46;;;;;;;;;;;;;;;;;;351346;28;873;-64
2022/08/02 00:34:56;;;;;;;;;;;;;;;;;;351394;28;912;-64
2022/08/02 00:35:07;;;;;;;;;;;;;;;;;;351310;28;881;-64
2022/08/02 00:35:17;;;;;;;;;;;;;;;;;;351302;28;996;-65
2022/08/02 00:35:27;;;;;;;;;;;;;;;;;;351295;28;964;-64
2022/08/02 00:35:38;;;;;;;;;;;;;;;;;;351347;28;860;-64
2022/08/02 00:35:48;;;;;;;;;;;;;;;;;;351326;28;912;-64
2022/08/02 00:35:58;;;;;;;;;;;;;;;;;;351275;28;913;-64
2022/08/02 00:36:08;;;;;;;;;;;;;;;;;;351311;28;892;-64
2022/08/02 00:36:18;;;;;;;;;;;;;;;;;;351273;28;975;-64
2022/08/02 00:36:29;;;;;;;;;;;;;;;;;;351265;28;963;-64
2022/08/02 00:36:39;;;;;;;;;;;;;;;;;;351308;28;936;-64
2022/08/02 00:36:49;;;;;;;;;;;;;;;;;;351340;28;777;-64
2022/08/02 00:37:00;;;;;;;;;;;;;;;;;;351313;28;986;-64
2022/08/02 00:37:10;;;;;;;;;;;;;;;;;;351286;28;1075;-64
2022/08/02 00:37:20;;;;;;;;;;;;;;;;;;351327;28;908;-64
2022/08/02 00:37:30;;;;;;;;;;;;;;;;;;351236;28;911;-64
2022/08/02 00:37:41;;;;;;;;;;;;;;;;;;351284;28;1141;-64
2022/08/02 00:37:51;;;;;;;;;;;;;;;;;;351318;28;1033;-64
2022/08/02 00:38:02;;;;;;;;;;;;;;;;;;351195;28;1976;-64
2022/08/02 00:38:13;;;;;;;;;;;;;;;;;;351339;28;991;-64
2022/08/02 00:38:23;;;;;;;;;;;;;;;;;;351246;28;912;-64
2022/08/02 00:38:33;;;;;;;;;;;;;;;;;;351248;28;1086;-64
2022/08/02 00:38:43;;;;;;;;;;;;;;;;;;351290;28;813;-64
2022/08/02 00:38:54;;;;;;;;;;;;;;;;;;351292;28;916;-64
2022/08/02 00:39:04;;;;;;;;;;;;;;;;;;351359;28;872;-64
2022/08/02 00:39:14;;;;;;;;;;;;;;;;;;350547;28;1444;-64
2022/08/02 00:39:24;;;;;;;;;;;;;;;;;;349752;28;1686;-64
2022/08/02 00:39:35;;;;;;;;;;;;;;;;;;351293;28;1864;-64
2022/08/02 00:39:45;;;;;;;;;;;;;;;;;;350791;28;1164;-64
2022/08/02 00:39:56;;;;;;;;;;;;;;;;;;349939;28;1397;-64
2022/08/02 00:40:07;;;;;;;;;;;;;;;;;;350215;28;928;-64
2022/08/02 00:40:20;;;;;;;;;;;;;;;;;;350065;28;1042;-64
2022/08/02 00:40:30;;;;;;;;;;;;;;;;;;350087;28;983;-64
2022/08/02 00:40:45;;;;;;;;;;;;;;;;;;350150;28;936;-64
2022/08/02 00:40:56;;;;;;;;;;;;;;;;;;350181;28;845;-64
2022/08/02 00:41:10;;;;;;;;;;;;;;;;;;350129;28;818;-64
2022/08/02 00:41:21;;;;;;;;;;;;;;;;;;349752;28;1480;-64
2022/08/02 00:41:31;;;;;;;;;;;;;;;;;;350840;28;1752;-64
2022/08/02 00:41:47;;;;;;;;;;;;;;;;;;350226;28;848;-64
2022/08/02 00:41:57;;;;;;;;;;;;;;;;;;350412;28;1844;-64
2022/08/02 00:42:07;;;;;;;;;;;;;;;;;;351552;28;939;-64
2022/08/02 00:42:17;;;;;;;;;;;;;;;;;;351641;28;820;-64
2022/08/02 00:42:28;;;;;;;;;;;;;;;;;;351518;28;920;-64
2022/08/02 00:42:38;;;;;;;;;;;;;;;;;;351518;28;920;-64
2022/08/02 00:43:03;;;;;;;;;;;;;;;;;;351496;27;979;-64
2022/08/02 00:43:13;;;;;;;;;;;;;;;;;;350081;28;1639;-64
2022/08/02 00:43:23;;;;;;;;;;;;;;;;;;351282;28;1903;-64
2022/08/02 00:43:33;;;;;;;;;;;;;;;;;;351527;28;877;-64
2022/08/02 00:43:44;;;;;;;;;;;;;;;;;;350161;28;936;-64
2022/08/02 00:43:55;;;;;;;;;;;;;;;;;;350177;28;931;-64
2022/08/02 00:44:06;;;;;;;;;;;;;;;;;;350173;28;1085;-64
2022/08/02 00:44:17;;;;;;;;;;;;;;;;;;350192;28;952;-64
2022/08/02 00:44:27;;;;;;;;;;;;;;;;;;350163;28;916;-64
2022/08/02 00:44:37;;;;;;;;;;;;;;;;;;350094;28;912;-64
2022/08/02 00:44:48;;;;;;;;;;;;;;;;;;350144;28;920;-64
2022/08/02 00:44:58;;;;;;;;;;;;;;;;;;350123;28;1149;-64
2022/08/02 00:45:09;;;;;;;;;;;;;;;;;;350159;28;984;-64
2022/08/02 00:45:20;;;;;;;;;;;;;;;;;;350137;28;879;-64
2022/08/02 00:45:31;;;;;;;;;;;;;;;;;;350193;28;794;-64
2022/08/02 00:45:41;;;;;;;;;;;;;;;;;;350186;28;995;-64
2022/08/02 00:45:52;;;;;;;;;;;;;;;;;;350188;28;826;-64
2022/08/02 00:46:02;;;;;;;;;;;;;;;;;;350171;28;865;-64
2022/08/02 00:46:13;;;;;;;;;;;;;;;;;;350117;28;917;-64
2022/08/02 00:46:23;;;;;;;;;;;;;;;;;;350150;28;983;-64
2022/08/02 00:46:33;;;;;;;;;;;;;;;;;;350146;28;1021;-65
2022/08/02 00:46:44;;;;;;;;;;;;;;;;;;350108;28;931;-64
2022/08/02 00:46:54;;;;;;;;;;;;;;;;;;351308;28;848;-64
2022/08/02 00:47:04;;;;;;;;;;;;;;;;;;351541;28;1015;-64
2022/08/02 00:47:15;;;;;;;;;;;;;;;;;;351589;28;778;-64
2022/08/02 00:47:25;;;;;;;;;;;;;;;;;;351558;28;987;-65
2022/08/02 00:47:35;;;;;;;;;;;;;;;;;;351576;28;841;-64
2022/08/02 00:47:46;;;;;;;;;;;;;;;;;;351527;28;984;-64
2022/08/02 00:47:56;;;;;;;;;;;;;;;;;;351595;28;836;-64
2022/08/02 00:48:07;;;;;;;;;;;;;;;;;;351490;28;952;-64
2022/08/02 00:48:17;;;;;;;;;;;;;;;;;;351570;28;975;-64
2022/08/02 00:48:28;;;;;;;;;;;;;;;;;;351577;28;777;-64
2022/08/02 00:48:38;;;;;;;;;;;;;;;;;;351479;28;960;-64
2022/08/02 00:48:48;;;;;;;;;;;;;;;;;;351558;28;849;-64
2022/08/02 00:48:58;;;;;;;;;;;;;;;;;;351527;28;920;-64
2022/08/02 00:49:09;;;;;;;;;;;;;;;;;;351572;28;793;-64
2022/08/02 00:49:19;;;;;;;;;;;;;;;;;;351530;28;912;-64
2022/08/02 00:49:29;;;;;;;;;;;;;;;;;;351577;28;924;-64
2022/08/02 00:49:40;;;;;;;;;;;;;;;;;;351551;28;944;-64
2022/08/02 00:49:50;;;;;;;;;;;;;;;;;;351580;28;848;-64
2022/08/02 00:50:00;;;;;;;;;;;;;;;;;;351506;28;999;-64
2022/08/02 00:50:10;;;;;;;;;;;;;;;;;;351578;28;762;-64
2022/08/02 00:50:21;;;;;;;;;;;;;;;;;;351587;28;1050;-64
2022/08/02 00:50:32;;;;;;;;;;;;;;;;;;350968;28;1394;-64
2022/08/02 00:50:42;;;;;;;;;;;;;;;;;;349983;28;1627;-64
2022/08/02 00:50:52;;;;;;;;;;;;;;;;;;350148;28;924;-64
2022/08/02 00:51:02;;;;;;;;;;;;;;;;;;350310;28;864;-64
2022/08/02 00:51:13;;;;;;;;;;;;;;;;;;351615;28;947;-64
2022/08/02 00:51:23;;;;;;;;;;;;;;;;;;351539;28;1023;-64
2022/08/02 00:51:34;;;;;;;;;;;;;;;;;;351514;28;959;-64
2022/08/02 00:51:44;;;;;;;;;;;;;;;;;;351556;28;1003;-64
2022/08/02 00:51:54;;;;;;;;;;;;;;;;;;351583;28;825;-64
2022/08/02 00:52:04;;;;;;;;;;;;;;;;;;351539;28;959;-64
2022/08/02 00:52:15;;;;;;;;;;;;;;;;;;351563;28;904;-64
2022/08/02 00:52:25;;;;;;;;;;;;;;;;;;351519;28;920;-65
2022/08/02 00:52:35;;;;;;;;;;;;;;;;;;351515;28;1007;-64
2022/08/02 00:52:45;;;;;;;;;;;;;;;;;;351502;27;978;-64
2022/08/02 00:52:55;;;;;;;;;;;;;;;;;;351487;28;861;-64
2022/08/02 00:53:08;;;;;;;;;;;;;;;;;;351515;28;904;-64
2022/08/02 00:53:18;;;;;;;;;;;;;;;;;;351524;28;1014;-64
2022/08/02 00:53:28;;;;;;;;;;;;;;;;;;351546;28;912;-64
2022/08/02 00:53:39;;;;;;;;;;;;;;;;;;351604;28;829;-64
2022/08/02 00:53:49;;;;;;;;;;;;;;;;;;351565;28;817;-64
2022/08/02 00:53:59;;;;;;;;;;;;;;;;;;351575;28;981;-64
2022/08/02 00:54:09;;;;;;;;;;;;;;;;;;351493;28;912;-64
2022/08/02 00:54:20;;;;;;;;;;;;;;;;;;351541;28;1039;-64
2022/08/02 00:54:30;;;;;;;;;;;;;;;;;;351552;28;952;-64
2022/08/02 00:54:40;;;;;;;;;;;;;;;;;;351535;27;920;-64
2022/08/02 00:54:50;;;;;;;;;;;;;;;;;;351506;28;1015;-64
2022/08/02 00:55:01;;;;;;;;;;;;;;;;;;351458;28;808;-64
2022/08/02 00:55:11;;;;;;;;;;;;;;;;;;351586;28;944;-64
2022/08/02 00:55:21;;;;;;;;;;;;;;;;;;351564;28;976;-64
2022/08/02 00:55:31;;;;;;;;;;;;;;;;;;351566;28;995;-64
2022/08/02 00:55:42;;;;;;;;;;;;;;;;;;351559;28;924;-64
2022/08/02 00:55:52;;;;;;;;;;;;;;;;;;351479;28;912;-64
2022/08/02 00:56:02;;;;;;;;;;;;;;;;;;351554;28;983;-64
2022/08/02 00:56:13;;;;;;;;;;;;;;;;;;351582;28;790;-64
2022/08/02 00:56:23;;;;;;;;;;;;;;;;;;351596;28;929;-64
2022/08/02 00:56:33;;;;;;;;;;;;;;;;;;351470;28;1095;-64
2022/08/02 00:56:44;;;;;;;;;;;;;;;;;;351637;28;864;-64
2022/08/02 00:56:54;;;;;;;;;;;;;;;;;;351523;28;909;-64
2022/08/02 00:57:04;;;;;;;;;;;;;;;;;;351476;27;959;-64
2022/08/02 00:57:15;;;;;;;;;;;;;;;;;;351512;28;885;-64
2022/08/02 00:57:25;;;;;;;;;;;;;;;;;;351575;28;940;-64
2022/08/02 00:57:35;;;;;;;;;;;;;;;;;;351545;28;1032;-64
2022/08/02 00:57:45;;;;;;;;;;;;;;;;;;351535;28;955;-64
2022/08/02 00:57:56;;;;;;;;;;;;;;;;;;351530;28;786;-64
2022/08/02 00:58:07;;;;;;;;;;;;;;;;;;351483;28;1981;-64
2022/08/02 00:58:17;;;;;;;;;;;;;;;;;;351560;28;861;-64
2022/08/02 00:58:27;;;;;;;;;;;;;;;;;;351555;28;983;-64
2022/08/02 00:58:37;;;;;;;;;;;;;;;;;;351526;28;889;-65
2022/08/02 00:58:48;;;;;;;;;;;;;;;;;;351563;28;924;-64
2022/08/02 00:58:58;;;;;;;;;;;;;;;;;;351578;28;849;-64
2022/08/02 00:59:08;;;;;;;;;;;;;;;;;;351573;28;1086;-64
2022/08/02 00:59:18;;;;;;;;;;;;;;;;;;351450;27;849;-64
2022/08/02 00:59:28;;;;;;;;;;;;;;;;;;351500;28;976;-64
2022/08/02 00:59:40;;;;;;;;;;;;;;;;;;351534;28;912;-64
2022/08/02 00:59:51;;;;;;;;;;;;;;;;;;351538;28;932;-64
2022/08/02 01:00:01;;;;;;;;;;;;;;;;;;351524;28;792;-64
2022/08/02 01:00:11;;;;;;;;;;;;;;;;;;351546;28;909;-64
2022/08/02 01:00:21;;;;;;;;;;;;;;;;;;351543;27;921;-64
2022/08/02 01:00:32;;;;;;;;;;;;;;;;;;351568;28;884;-64
2022/08/02 01:00:42;;;;;;;;;;;;;;;;;;351450;28;968;-64
2022/08/02 01:00:53;;;;;;;;;;;;;;;;;;351446;28;1103;-64
2022/08/02 01:01:03;;;;;;;;;;;;;;;;;;351567;28;924;-64
2022/08/02 01:01:14;;;;;;;;;;;;;;;;;;351483;28;924;-64
2022/08/02 01:01:37;;;;;;;;;;;;;;;;;;351523;28;920;-64
2022/08/02 01:01:47;;;;;;;;;;;;;;;;;;351517;28;996;-65
2022/08/02 01:01:57;;;;;;;;;;;;;;;;;;351513;28;861;-64
2022/08/02 01:02:08;;;;;;;;;;;;;;;;;;351561;27;932;-64
2022/08/02 01:02:18;;;;;;;;;;;;;;;;;;351492;28;999;-64
2022/08/02 01:02:28;;;;;;;;;;;;;;;;;;351548;28;844;-64
2022/08/02 01:02:38;;;;;;;;;;;;;;;;;;351563;28;1007;-64
2022/08/02 01:02:49;;;;;;;;;;;;;;;;;;351483;28;1015;-65
2022/08/02 01:02:59;;;;;;;;;;;;;;;;;;351524;28;884;-64
2022/08/02 01:03:10;;;;;;;;;;;;;;;;;;351562;28;1127;-64
2022/08/02 01:03:20;;;;;;;;;;;;;;;;;;351468;28;910;-64
2022/08/02 01:03:30;;;;;;;;;;;;;;;;;;351538;28;928;-64
2022/08/02 01:03:40;;;;;;;;;;;;;;;;;;351535;28;790;-64
2022/08/02 01:03:50;;;;;;;;;;;;;;;;;;350607;28;950;-64
2022/08/02 01:04:04;;;;;;;;;;;;;;;;;;350157;28;865;-64
2022/08/02 01:04:14;;;;;;;;;;;;;;;;;;350139;28;967;-64
2022/08/02 01:04:25;;;;;;;;;;;;;;;;;;350057;28;1020;-65
2022/08/02 01:04:35;;;;;;;;;;;;;;;;;;350158;28;869;-65
2022/08/02 01:04:45;;;;;;;;;;;;;;;;;;350151;28;944;-64
2022/08/02 01:04:56;;;;;;;;;;;;;;;;;;350080;28;1212;-64
2022/08/02 01:05:06;;;;;;;;;;;;;;;;;;350125;28;917;-64
2022/08/02 01:05:17;;;;;;;;;;;;;;;;;;350111;28;1055;-64
2022/08/02 01:05:27;;;;;;;;;;;;;;;;;;350078;28;995;-64
2022/08/02 01:05:37;;;;;;;;;;;;;;;;;;350128;28;944;-64
2022/08/02 01:05:47;;;;;;;;;;;;;;;;;;349766;28;1463;-64
2022/08/02 01:05:58;;;;;;;;;;;;;;;;;;350255;28;1780;-64
2022/08/02 01:06:08;;;;;;;;;;;;;;;;;;351471;28;1295;-64
2022/08/02 01:06:18;;;;;;;;;;;;;;;;;;351502;28;980;-64
2022/08/02 01:06:32;;;;;;;;;;;;;;;;;;351515;28;804;-64
2022/08/02 01:06:42;;;;;;;;;;;;;;;;;;351554;28;773;-64
2022/08/02 01:06:52;;;;;;;;;;;;;;;;;;351535;28;899;-64
2022/08/02 01:07:03;;;;;;;;;;;;;;;;;;351511;27;1015;-64
2022/08/02 01:07:14;;;;;;;;;;;;;;;;;;351596;28;913;-64
2022/08/02 01:07:25;;;;;;;;;;;;;;;;;;351512;27;903;-64
2022/08/02 01:07:35;;;;;;;;;;;;;;;;;;351481;28;987;-64
2022/08/02 01:07:46;;;;;;;;;;;;;;;;;;351465;28;789;-64
2022/08/02 01:07:56;;;;;;;;;;;;;;;;;;351526;28;936;-64
2022/08/02 01:08:07;;;;;;;;;;;;;;;;;;351511;28;983;-64
2022/08/02 01:08:17;;;;;;;;;;;;;;;;;;351474;28;912;-64
2022/08/02 01:08:27;;;;;;;;;;;;;;;;;;351575;28;826;-64
2022/08/02 01:08:38;;;;;;;;;;;;;;;;;;351562;28;999;-64
2022/08/02 01:08:49;;;;;;;;;;;;;;;;;;351558;28;920;-64
2022/08/02 01:09:00;;;;;;;;;;;;;;;;;;351567;28;1793;-64
2022/08/02 01:09:10;;;;;;;;;;;;;;;;;;351486;28;1088;-65
2022/08/02 01:09:20;;;;;;;;;;;;;;;;;;351526;28;944;-64
2022/08/02 01:09:31;;;;;;;;;;;;;;;;;;351548;28;917;-64
2022/08/02 01:09:41;;;;;;;;;;;;;;;;;;351433;28;1164;-64
2022/08/02 01:09:52;;;;;;;;;;;;;;;;;;351524;28;762;-64
2022/08/02 01:10:03;;;;;;;;;;;;;;;;;;351492;28;890;-64
2022/08/02 01:10:13;;;;;;;;;;;;;;;;;;351003;28;1361;-64
2022/08/02 01:10:23;;;;;;;;;;;;;;;;;;351543;28;916;-64
2022/08/02 01:10:33;;;;;;;;;;;;;;;;;;351552;28;913;-64
2022/08/02 01:10:44;;;;;;;;;;;;;;;;;;351493;28;926;-64
2022/08/02 01:10:54;;;;;;;;;;;;;;;;;;351564;28;802;-64
2022/08/02 01:11:04;;;;;;;;;;;;;;;;;;351517;28;932;-64
2022/08/02 01:11:14;;;;;;;;;;;;;;;;;;351564;28;810;-64
2022/08/02 01:11:25;;;;;;;;;;;;;;;;;;351545;28;1011;-64
2022/08/02 01:11:35;;;;;;;;;;;;;;;;;;351557;28;916;-64
2022/08/02 01:11:45;;;;;;;;;;;;;;;;;;351491;28;928;-64
2022/08/02 01:11:56;;;;;;;;;;;;;;;;;;351537;28;968;-64
2022/08/02 01:12:06;;;;;;;;;;;;;;;;;;351458;28;940;-64
2022/08/02 01:12:16;;;;;;;;;;;;;;;;;;351535;28;924;-64
2022/08/02 01:12:26;;;;;;;;;;;;;;;;;;351500;28;1070;-64
2022/08/02 01:12:37;;;;;;;;;;;;;;;;;;351559;28;834;-64
2022/08/02 01:12:47;;;;;;;;;;;;;;;;;;351464;28;963;-65
2022/08/02 01:12:57;;;;;;;;;;;;;;;;;;351572;28;829;-64
2022/08/02 01:13:07;;;;;;;;;;;;;;;;;;351527;28;845;-64
2022/08/02 01:13:18;;;;;;;;;;;;;;;;;;351515;28;978;-64
2022/08/02 01:13:28;;;;;;;;;;;;;;;;;;351484;28;924;-64
2022/08/02 01:13:38;;;;;;;;;;;;;;;;;;351504;28;1062;-64
2022/08/02 01:13:48;;;;;;;;;;;;;;;;;;351522;28;975;-64
2022/08/02 01:14:07;;;;;;;;;;;;;;;;;;351531;28;904;-64
2022/08/02 01:14:17;;;;;;;;;;;;;;;;;;351494;28;904;-64
2022/08/02 01:14:28;;;;;;;;;;;;;;;;;;351503;28;999;-64
2022/08/02 01:14:42;;;;;;;;;;;;;;;;;;351523;28;952;-64
2022/08/02 01:14:54;;;;;;;;;;;;;;;;;;351560;28;888;-64
2022/08/02 01:15:07;;;;;;;;;;;;;;;;;;351447;28;956;-64